»·PEaware :: N900FT KLAS-KLAX

N900FT :: KLAS-KLAX

FLIGHT INFORMATION

Flight Status: Arrived
Operator: Privately registered:
United States
More flights under this callsign
Pilot: Anonymous 26404 (26404)
Aircraft: SOCATA TBM-900
(TBM9)
More flights by this aircraft type
Origin: KLAS McCarran Intl
United States
Destination: KLAX Los Angeles Intl
United States
More flights between these airports :: More routes between these airports
Route: +BOACH8 RIKII SHTNR ANJLL4
File this flight plan on PilotEdge
Remarks:
Altitude:
(Current/Filed)
30,000ft
Speed:
(Current/Filed)
320kts
Departed: 21-May-20 05:25 PM
Arrived: 21-May-20 06:21 PM
Distance/Time
Traveled:
205nm/0:56
Distance/Time
To Go:
Arrived

Flight Plot

Page will automatically refresh every two minutes.


Map Options




Map Legend


Flown Route
Filed Route
Departure Airport
Arrival Airport
Navaid (VOR, NDB)
Fix

Horizontal Profiles

Position Reports

Time Latitude Longitude Heading Altitude Ground
Speed
21-May-20 16:56 36.094806 -115.162349 12 2109ft 0kts
21-May-20 16:57 36.094806 -115.162349 12 2109ft 0kts
21-May-20 16:58 36.094806 -115.162349 12 2109ft 0kts
21-May-20 16:59 36.094806 -115.162349 12 2109ft 0kts
21-May-20 17:00 36.094806 -115.162349 12 2109ft 0kts
21-May-20 17:01 36.094806 -115.162349 12 2109ft 0kts
21-May-20 17:02 36.094806 -115.162349 12 2109ft 0kts
21-May-20 17:03 36.094806 -115.162349 12 2109ft 0kts
21-May-20 17:04 36.094806 -115.162349 12 2109ft 0kts
21-May-20 17:05 36.094806 -115.162349 12 2109ft 0kts
21-May-20 17:06 36.094806 -115.162349 12 2109ft 0kts
21-May-20 17:07 36.094806 -115.162349 12 2109ft 0kts
21-May-20 17:08 36.094806 -115.162349 12 2109ft 0kts
21-May-20 17:09 36.094806 -115.162349 12 2109ft 0kts
21-May-20 17:10 36.094806 -115.162349 12 2109ft 0kts
21-May-20 17:11 36.094806 -115.162349 12 2109ft 0kts
21-May-20 17:12 36.094806 -115.162349 12 2109ft 0kts
21-May-20 17:13 36.094806 -115.162349 12 2109ft 0kts
21-May-20 17:14 36.094806 -115.162349 12 2109ft 0kts
21-May-20 17:15 36.094698 -115.162366 157 2109ft 9kts
21-May-20 17:16 36.094630 -115.162323 146 2109ft 0kts
21-May-20 17:17 36.096172 -115.160828 24 2100ft 20kts
21-May-20 17:18 36.099869 -115.157496 94 2085ft 0kts
21-May-20 17:19 36.099869 -115.157496 94 2085ft 0kts
21-May-20 17:20 36.099869 -115.157496 94 2085ft 0kts
21-May-20 17:21 36.099864 -115.157475 110 2085ft 0kts
21-May-20 17:22 36.099120 -115.156757 203 2083ft 0kts
21-May-20 17:23 36.099113 -115.156761 203 2083ft 3kts
21-May-20 17:24 36.072340 -115.172546 207 3448ft 138kts
21-May-20 17:25 36.038268 -115.191669 205 6148ft 132kts
21-May-20 17:26 36.008239 -115.219775 239 8358ft 157kts
21-May-20 17:27 35.985391 -115.270167 241 10700ft 170kts
21-May-20 17:28 35.949685 -115.304044 188 12875ft 180kts
21-May-20 17:29 35.899188 -115.310128 189 14936ft 187kts
21-May-20 17:30 35.846550 -115.313845 181 17232ft 193kts
21-May-20 17:31 35.790539 -115.307512 182 19004ft 223kts
21-May-20 17:32 35.728944 -115.300415 184 21272ft 214kts
21-May-20 17:33 35.667877 -115.295066 192 23254ft 218kts
21-May-20 17:34 35.601155 -115.297823 191 24001ft 268kts
21-May-20 17:35 35.520871 -115.300932 190 23983ft 296kts
21-May-20 17:36 35.450200 -115.341138 219 23981ft 281kts
21-May-20 17:37 35.382705 -115.391065 218 23978ft 284kts
21-May-20 17:38 35.313520 -115.441309 218 23977ft 285kts
21-May-20 17:39 35.244310 -115.491436 218 23977ft 285kts
21-May-20 17:40 35.175131 -115.541446 218 23973ft 285kts
21-May-20 17:41 35.109096 -115.596473 234 23977ft 274kts
21-May-20 17:42 35.056695 -115.664778 232 24012ft 274kts
21-May-20 17:43 35.002886 -115.733624 231 24023ft 276kts
21-May-20 17:44 34.948294 -115.803189 230 24017ft 275kts
21-May-20 17:45 34.894956 -115.871018 228 24023ft 274kts
21-May-20 17:46 34.841924 -115.938275 228 24029ft 275kts
21-May-20 17:47 34.787983 -116.006589 228 24028ft 275kts
21-May-20 17:48 34.734208 -116.075026 228 24027ft 275kts
21-May-20 17:50 34.680308 -116.143640 228 24027ft 275kts
21-May-20 17:51 34.626415 -116.212108 228 24021ft 275kts
21-May-20 17:52 34.572383 -116.280615 228 24022ft 275kts
21-May-20 17:53 34.518213 -116.349160 228 24025ft 274kts
21-May-20 17:54 34.464179 -116.417396 228 24022ft 274kts
21-May-20 17:55 34.412258 -116.488067 244 23989ft 272kts
21-May-20 17:56 34.378263 -116.570868 244 23975ft 272kts
21-May-20 17:57 34.344022 -116.653902 243 23790ft 278kts
21-May-20 17:58 34.307964 -116.743029 243 22422ft 296kts
21-May-20 17:59 34.271278 -116.834130 243 21074ft 299kts
21-May-20 18:00 34.233682 -116.927395 241 19711ft 302kts
21-May-20 18:01 34.200160 -117.023776 247 18758ft 304kts
21-May-20 18:02 34.172286 -117.126249 254 17361ft 321kts
21-May-20 18:03 34.143955 -117.230169 253 16137ft 323kts
21-May-20 18:04 34.114934 -117.335449 252 14556ft 326kts
21-May-20 18:05 34.087552 -117.441266 253 13060ft 318kts
21-May-20 18:05 34.066432 -117.525379 253 11940ft 297kts
21-May-20 18:07 34.031372 -117.621980 244 11946ft 273kts
21-May-20 18:08 34.004244 -117.706894 264 10591ft 297kts
21-May-20 18:08 33.996385 -117.790060 264 8222ft 276kts
21-May-20 18:09 33.990151 -117.874197 270 7946ft 235kts
21-May-20 18:11 33.980208 -117.971618 264 6738ft 261kts
21-May-20 18:11 33.972436 -118.045074 261 5557ft 267kts
21-May-20 18:12 33.963500 -118.130185 260 4186ft 233kts
21-May-20 18:13 33.957171 -118.190900 259 3190ft 158kts
21-May-20 18:14 33.952478 -118.236201 259 2508ft 126kts
21-May-20 18:15 33.948529 -118.274265 263 1957ft 98kts
21-May-20 18:16 33.945185 -118.306864 263 1363ft 94kts
21-May-20 18:17 33.942094 -118.336625 262 869ft 79kts
21-May-20 18:18 33.939459 -118.363016 260 554ft 79kts
21-May-20 18:19 33.936864 -118.387702 261 98ft 44kts
21-May-20 18:20 33.935591 -118.391064 179 102ft 0kts
21-May-20 18:21 33.935150 -118.392509 261 101ft 13kts
21-May-20 18:22 33.934365 -118.394868 269 104ft 6kts
21-May-20 18:23 33.934098 -118.395551 174 105ft 0kts
21-May-20 18:24 33.934098 -118.395551 174 105ft 0kts
21-May-20 18:25 33.934098 -118.395551 174 105ft 0kts
21-May-20 18:26 33.934098 -118.395551 174 105ft 0kts
21-May-20 18:27 33.934098 -118.395551 174 105ft 0kts
21-May-20 18:28 33.934098 -118.395551 174 105ft 0kts
21-May-20 18:29 33.934098 -118.395551 174 105ft 0kts
21-May-20 18:30 33.934098 -118.395551 174 105ft 0kts
21-May-20 18:31 33.934098 -118.395551 174 105ft 0kts
21-May-20 18:32 33.934098 -118.395551 174 105ft 0kts
21-May-20 18:33 33.934098 -118.395551 174 105ft 0kts
21-May-20 18:34 33.934098 -118.395551 174 105ft 0kts

Navigation Log

Ident Type
Flight plan parsing failed, navigation log unavailable